AirNav   Bose Proflight Series 2 Wireless viation Headset
 
 877 users online  

4CL6 Pat Coyle Memorial Heliport
San Marcos, California, USA

GOING TO SAN MARCOS?


FAA INFORMATION EFFECTIVE 10 OCTOBER 2019

Location

FAA Identifier: 4CL6
Lat/Long: 33-08-31.8400N 117-08-43.9400W
33-08.530667N 117-08.732333W
33.1421778,-117.1455389
(estimated)
Elevation: 600 ft. / 183 m (estimated)
Variation: 13E (1995)
Time zone: UTC -7 (UTC -8 during Standard Time)
Zip code: 92069

Heliport Operations

Heliport use: Private use. Permission required prior to landing
Activation date: 09/1999
Control tower: no
ARTCC: LOS ANGELES CENTER
FSS: SAN DIEGO FLIGHT SERVICE STATION
Attendance: UNATNDD
Wind indicator: lighted
Segmented circle: no
Lights: ACTVT RY H1 PERIMETER LGTS, WINDSOCK - 123.1.

Heliport Communications

WX ASOS at CRQ (7 nm W): PHONE 760-930-0864
WX ASOS at OKB (11 nm NW): 127.8 (760-439-9683)
WX ASOS at RNM (13 nm SE): PHONE 760-789-7699
WX AWOS-3P at L18 (14 nm NW): 118.425 (760-723-6073)
WX ASOS at MYF (20 nm S): 126.9 (858-576-4337)

Nearby radio navigation aids

VOR radial/distance  VOR name  Freq  Var
OCNr098/14.9OCEANSIDE VORTAC115.3015E
MZBr356/22.0MISSION BAY VORTAC117.8015E
JLIr255/28.1JULIAN VORTAC114.0015E
PGYr331/33.0POGGI VORTAC116.4514E
TIJr331/37.4TIJUANA VOR/DME116.5014E
HDFr163/(38.1)HOMELAND VOR113.4014E

Heliport Services

Runway Information

Helipad H1

Dimensions: 26 x 26 ft. / 8 x 8 m
Surface: concrete
Runway edge lights: PERI
RY H1 NSTD GREEN PERIMETER LGTS.
Latitude: 33-08.530667N
Longitude: 117-08.732333W
Elevation: 600.0 ft.
Traffic pattern: leftleft

Heliport Ownership and Management from official FAA records

Ownership: Privately-owned
Owner: SAN DIEGO COUNTY SHERIFF'S DEPT.
1745 N. MARSHALL AVENUE
EL CAJON, CA 92020
Phone (619) 956-4930
Manager: TONY WEBBER
1745 N. MARSHALL AVENUE
EL CAJON, CA 92020
Phone 619-956-4930

Additional Remarks

FINAL APCH & TKOF AREA 48 FT SQUARE, TOUCHDOWN AND LIFT-OFF AREA 26 FT DIAMETER CIRCLE.
FOR CD CTC LOS ANGELES ARTCC AT 661-575-2079.

Instrument Procedures

There are no published instrument procedures at 4CL6.

Some nearby airports with instrument procedures:

KCRQ - Mc Clellan-Palomar Airport (7 nm W)
KOKB - Bob Maxwell Memorial Airfield (11 nm NW)
KRNM - Ramona Airport (13 nm SE)
L18 - Fallbrook Community Airpark (14 nm NW)
KNFG - Camp Pendleton MCAS (Munn Field) Airport (14 nm NW)
KNKX - Miramar MCAS (Joe Foss Field) Airport (16 nm S)
KMYF - Montgomery-Gibbs Executive Airport (20 nm S)
 
Loc | Ops | Rwys | IFR | FBO | Links
Com | Nav | Svcs | Stats | Notes
Area around 4CL6 (Pat Coyle Memorial Heliport)
 
Road maps at: MapQuest Bing Google
 
Aerial photo
No photo
 
Sectional chart

 
Airport distance calculator
Flying to Pat Coyle Memorial Heliport? Find the distance to fly.

From to 4CL6

Sunrise and sunset
Times for 19-Oct-2019
 Local
(UTC-7)
 Zulu
(UTC)
Morning civil twilight06:3213:32
Sunrise06:5713:57
Sunset18:1001:10
Evening civil twilight18:3501:35

Current date and time
Zulu (UTC)  19-Oct-2019 13:45:22
Local (UTC-7)  19-Oct-2019 06:45:22
 
METAR
KCRQ 
7nm W 
191253Z AUTO 08003KT 10SM CLR 14/11 A2989 RMK AO2 SLP120 T01390106
KOKB 
11nm NW 
191252Z AUTO 00000KT 8SM CLR 09/07 A2990 RMK AO2 SLP124 T00940072
KNFG 
13nm NW 
191255Z AUTO 00000KT 9SM CLR 08/06 A2991 RMK AO2 SLP127 T00780061
KRNM 
13nm SE 
191253Z AUTO 00000KT 10SM CLR 06/04 A2992 RMK AO2 SLP124 T00610044
KL18 
14nm NW 
191335Z AUTO 02004KT 10SM CLR 12/07 A2991 RMK AO2
KNKX 
17nm S 
191255Z 06006KT 10SM CLR 12/09 A2990 RMK AO2 SLP120 T01220094 $
KNXF 
18nm NW 
191256Z AUTO 06004KT 10SM CLR 13/10 A2990 RMK AO2 SLP211 T01280100
KMYF 
20nm S 
191253Z 00000KT 10SM CLR 14/11 A2990 RMK AO2 SLP124 T01390106
TAF
KCRQ 
7nm W 
191120Z 1912/2012 VRB04KT P6SM SKC FM192100 27008KT P6SM SKC FM200000 VRB04KT P6SM SKC
KNFG 
13nm NW 
1909/2009 VRB05KT 9999 SKC QNH2981INS TEMPO 1919/2001 25009KT AUTOMATED SENSOR METWATCH 1909 TIL 2114 T09/1913Z T24/1921Z
KNKX 
17nm S 
1909/2009 VRB05KT 9999 SKC QNH2983INS TEMPO 1919/2001 27007KT T11/1913Z T25/1921Z
NOTAMs
Click for the latest NOTAMs
NOTAMs are issued by the DoD/FAA and will open in a separate window not controlled by AirNav.

 

 
 

Would you like to see your business listed on this page?

 If your business provides an interesting product or service to pilots, flight crews, aircraft, or users of the Pat Coyle Memorial Heliport, you should consider listing it here.  To start the listing process, click on the button below
 
Add a business
 

Other Pages about Pat Coyle Memorial Heliport

Update a link
 
Copyright © AirNav, LLC. All rights reserved. Privacy Policy  Contact